sensor_id;sensor_type;location;lat;lon;timestamp;temperature;humidity
15666;DHT22;20725;51.196;3.510;2023-01-16T00:01:17;3.60;99.90
15666;DHT22;20725;51.196;3.510;2023-01-16T00:03:45;3.70;99.90
15666;DHT22;20725;51.196;3.510;2023-01-16T00:06:12;3.60;99.90
15666;DHT22;20725;51.196;3.510;2023-01-16T00:08:41;3.60;99.90
15666;DHT22;20725;51.196;3.510;2023-01-16T00:11:08;3.50;99.90
15666;DHT22;20725;51.196;3.510;2023-01-16T00:13:38;3.50;99.90
15666;DHT22;20725;51.196;3.510;2023-01-16T00:16:06;3.60;99.90
15666;DHT22;20725;51.196;3.510;2023-01-16T00:18:33;3.50;99.90
15666;DHT22;20725;51.196;3.510;2023-01-16T00:21:02;3.60;99.90
15666;DHT22;20725;51.196;3.510;2023-01-16T00:23:29;3.50;99.90
15666;DHT22;20725;51.196;3.510;2023-01-16T00:25:55;3.50;99.90
15666;DHT22;20725;51.196;3.510;2023-01-16T00:28:22;3.50;99.90
15666;DHT22;20725;51.196;3.510;2023-01-16T00:30:49;3.50;99.90
15666;DHT22;20725;51.196;3.510;2023-01-16T00:33:16;3.60;99.90
15666;DHT22;20725;51.196;3.510;2023-01-16T00:35:43;3.50;99.90
15666;DHT22;20725;51.196;3.510;2023-01-16T00:38:12;3.50;99.90
15666;DHT22;20725;51.196;3.510;2023-01-16T00:40:39;3.40;99.90
15666;DHT22;20725;51.196;3.510;2023-01-16T00:43:05;3.30;99.90
15666;DHT22;20725;51.196;3.510;2023-01-16T00:45:32;3.30;99.90
15666;DHT22;20725;51.196;3.510;2023-01-16T00:47:59;3.30;99.90
15666;DHT22;20725;51.196;3.510;2023-01-16T00:50:26;3.20;99.90
15666;DHT22;20725;51.196;3.510;2023-01-16T00:52:53;3.30;99.90
15666;DHT22;20725;51.196;3.510;2023-01-16T00:55:22;3.20;99.90
15666;DHT22;20725;51.196;3.510;2023-01-16T00:57:48;3.20;99.90
15666;DHT22;20725;51.196;3.510;2023-01-16T01:05:20;3.10;99.90
15666;DHT22;20725;51.196;3.510;2023-01-16T01:07:47;3.20;99.90
15666;DHT22;20725;51.196;3.510;2023-01-16T01:10:14;3.00;99.90
15666;DHT22;20725;51.196;3.510;2023-01-16T01:12:42;3.00;99.90
15666;DHT22;20725;51.196;3.510;2023-01-16T01:15:09;3.10;99.90
15666;DHT22;20725;51.196;3.510;2023-01-16T01:17:37;3.00;99.90
15666;DHT22;20725;51.196;3.510;2023-01-16T01:20:05;3.00;99.90
15666;DHT22;20725;51.196;3.510;2023-01-16T01:22:32;3.00;99.90
15666;DHT22;20725;51.196;3.510;2023-01-16T01:24:59;2.90;99.90
15666;DHT22;20725;51.196;3.510;2023-01-16T01:27:26;2.90;99.90
15666;DHT22;20725;51.196;3.510;2023-01-16T01:29:54;2.90;99.90
15666;DHT22;20725;51.196;3.510;2023-01-16T01:32:26;2.80;99.90
15666;DHT22;20725;51.196;3.510;2023-01-16T01:34:53;2.90;99.90
15666;DHT22;20725;51.196;3.510;2023-01-16T01:37:20;3.00;99.90
15666;DHT22;20725;51.196;3.510;2023-01-16T01:39:47;3.00;99.90
15666;DHT22;20725;51.196;3.510;2023-01-16T01:42:17;3.10;99.90
15666;DHT22;20725;51.196;3.510;2023-01-16T01:45:14;3.10;99.90
15666;DHT22;20725;51.196;3.510;2023-01-16T01:47:45;3.20;99.90
15666;DHT22;20725;51.196;3.510;2023-01-16T01:50:18;3.20;99.90
15666;DHT22;20725;51.196;3.510;2023-01-16T01:52:48;3.20;99.90
15666;DHT22;20725;51.196;3.510;2023-01-16T01:55:16;3.20;99.90
15666;DHT22;20725;51.196;3.510;2023-01-16T01:57:46;3.20;99.90
15666;DHT22;20725;51.196;3.510;2023-01-16T02:00:19;3.30;99.90
15666;DHT22;20725;51.196;3.510;2023-01-16T02:02:50;3.40;99.90
15666;DHT22;20725;51.196;3.510;2023-01-16T02:05:21;3.40;99.90
15666;DHT22;20725;51.196;3.510;2023-01-16T02:07:49;3.40;99.90
15666;DHT22;20725;51.196;3.510;2023-01-16T02:10:23;3.40;99.90
15666;DHT22;20725;51.196;3.510;2023-01-16T02:12:57;3.50;99.90
15666;DHT22;20725;51.196;3.510;2023-01-16T02:15:25;3.50;99.90
15666;DHT22;20725;51.196;3.510;2023-01-16T02:17:52;3.60;99.90
15666;DHT22;20725;51.196;3.510;2023-01-16T02:20:49;3.60;99.90
15666;DHT22;20725;51.196;3.510;2023-01-16T02:30:06;3.70;99.90
15666;DHT22;20725;51.196;3.510;2023-01-16T02:32:52;3.70;99.90
15666;DHT22;20725;51.196;3.510;2023-01-16T02:35:36;3.70;99.90
15666;DHT22;20725;51.196;3.510;2023-01-16T02:38:11;3.70;99.90
15666;DHT22;20725;51.196;3.510;2023-01-16T02:40:48;3.80;99.90
15666;DHT22;20725;51.196;3.510;2023-01-16T02:43:30;3.80;99.90
15666;DHT22;20725;51.196;3.510;2023-01-16T02:46:07;3.80;99.90
15666;DHT22;20725;51.196;3.510;2023-01-16T02:48:45;3.90;99.90
15666;DHT22;20725;51.196;3.510;2023-01-16T02:51:20;3.90;99.90
15666;DHT22;20725;51.196;3.510;2023-01-16T02:53:57;4.00;99.90
15666;DHT22;20725;51.196;3.510;2023-01-16T02:56:28;4.00;99.90
15666;DHT22;20725;51.196;3.510;2023-01-16T02:58:58;4.10;99.90
15666;DHT22;20725;51.196;3.510;2023-01-16T03:01:25;4.10;99.90
15666;DHT22;20725;51.196;3.510;2023-01-16T03:04:04;4.10;99.90
15666;DHT22;20725;51.196;3.510;2023-01-16T03:06:41;4.00;99.90
15666;DHT22;20725;51.196;3.510;2023-01-16T03:09:22;3.90;99.90
15666;DHT22;20725;51.196;3.510;2023-01-16T03:12:09;3.90;99.90
15666;DHT22;20725;51.196;3.510;2023-01-16T03:14:51;3.90;99.90
15666;DHT22;20725;51.196;3.510;2023-01-16T03:17:39;3.90;99.90
15666;DHT22;20725;51.196;3.510;2023-01-16T03:20:25;3.90;99.90
15666;DHT22;20725;51.196;3.510;2023-01-16T03:23:02;3.90;99.90
15666;DHT22;20725;51.196;3.510;2023-01-16T03:25:38;4.00;99.90
15666;DHT22;20725;51.196;3.510;2023-01-16T03:28:20;3.90;99.90
15666;DHT22;20725;51.196;3.510;2023-01-16T03:30:55;4.00;99.90
15666;DHT22;20725;51.196;3.510;2023-01-16T03:33:46;4.00;99.90
15666;DHT22;20725;51.196;3.510;2023-01-16T03:36:33;4.00;99.90
15666;DHT22;20725;51.196;3.510;2023-01-16T03:39:07;4.10;99.90
15666;DHT22;20725;51.196;3.510;2023-01-16T03:41:38;4.10;99.90
15666;DHT22;20725;51.196;3.510;2023-01-16T03:44:11;4.10;99.90
15666;DHT22;20725;51.196;3.510;2023-01-16T03:46:44;4.10;99.90
15666;DHT22;20725;51.196;3.510;2023-01-16T03:49:17;4.20;99.90
15666;DHT22;20725;51.196;3.510;2023-01-16T03:51:51;4.10;99.90
15666;DHT22;20725;51.196;3.510;2023-01-16T03:54:28;4.10;99.90
15666;DHT22;20725;51.196;3.510;2023-01-16T03:57:03;4.20;99.90
15666;DHT22;20725;51.196;3.510;2023-01-16T03:59:31;4.20;99.90
15666;DHT22;20725;51.196;3.510;2023-01-16T04:02:03;4.20;99.90
15666;DHT22;20725;51.196;3.510;2023-01-16T04:04:36;4.30;99.90
15666;DHT22;20725;51.196;3.510;2023-01-16T04:07:11;4.20;99.90
15666;DHT22;20725;51.196;3.510;2023-01-16T04:09:45;4.40;99.90
15666;DHT22;20725;51.196;3.510;2023-01-16T04:12:13;4.30;99.90
15666;DHT22;20725;51.196;3.510;2023-01-16T04:14:48;4.40;99.90
15666;DHT22;20725;51.196;3.510;2023-01-16T04:17:18;4.30;99.90
15666;DHT22;20725;51.196;3.510;2023-01-16T04:19:45;4.30;99.90
15666;DHT22;20725;51.196;3.510;2023-01-16T04:22:20;4.50;99.90
15666;DHT22;20725;51.196;3.510;2023-01-16T04:24:49;4.30;99.90
15666;DHT22;20725;51.196;3.510;2023-01-16T04:27:17;4.30;99.90
15666;DHT22;20725;51.196;3.510;2023-01-16T04:29:44;4.40;99.90
15666;DHT22;20725;51.196;3.510;2023-01-16T04:32:11;4.30;99.90
15666;DHT22;20725;51.196;3.510;2023-01-16T04:34:38;4.40;99.90
15666;DHT22;20725;51.196;3.510;2023-01-16T04:37:06;4.40;99.90
15666;DHT22;20725;51.196;3.510;2023-01-16T04:39:34;4.40;99.90
15666;DHT22;20725;51.196;3.510;2023-01-16T04:42:01;4.50;99.90
15666;DHT22;20725;51.196;3.510;2023-01-16T04:44:28;4.50;99.90
15666;DHT22;20725;51.196;3.510;2023-01-16T04:46:55;4.50;99.90
15666;DHT22;20725;51.196;3.510;2023-01-16T04:49:22;4.40;99.90
15666;DHT22;20725;51.196;3.510;2023-01-16T04:51:49;4.40;99.90
15666;DHT22;20725;51.196;3.510;2023-01-16T04:54:17;4.40;99.90
15666;DHT22;20725;51.196;3.510;2023-01-16T04:56:46;4.40;99.90
15666;DHT22;20725;51.196;3.510;2023-01-16T04:59:13;4.40;99.90
15666;DHT22;20725;51.196;3.510;2023-01-16T05:01:41;4.50;99.90
15666;DHT22;20725;51.196;3.510;2023-01-16T05:04:10;4.50;99.90
15666;DHT22;20725;51.196;3.510;2023-01-16T05:06:38;4.50;99.90
15666;DHT22;20725;51.196;3.510;2023-01-16T05:09:07;4.50;99.90
15666;DHT22;20725;51.196;3.510;2023-01-16T05:11:34;4.50;99.90
15666;DHT22;20725;51.196;3.510;2023-01-16T05:14:03;4.40;99.90
15666;DHT22;20725;51.196;3.510;2023-01-16T05:16:33;4.40;99.90
15666;DHT22;20725;51.196;3.510;2023-01-16T05:19:00;4.40;99.90
15666;DHT22;20725;51.196;3.510;2023-01-16T05:21:27;4.50;99.90
15666;DHT22;20725;51.196;3.510;2023-01-16T05:23:55;4.50;99.90
15666;DHT22;20725;51.196;3.510;2023-01-16T05:26:21;4.50;99.90
15666;DHT22;20725;51.196;3.510;2023-01-16T05:28:51;4.50;99.90
15666;DHT22;20725;51.196;3.510;2023-01-16T05:31:19;4.50;99.90
15666;DHT22;20725;51.196;3.510;2023-01-16T05:33:54;4.50;99.90
15666;DHT22;20725;51.196;3.510;2023-01-16T05:36:24;4.50;99.90
15666;DHT22;20725;51.196;3.510;2023-01-16T05:38:52;4.50;99.90
15666;DHT22;20725;51.196;3.510;2023-01-16T05:41:20;4.40;99.90
15666;DHT22;20725;51.196;3.510;2023-01-16T05:43:52;4.40;99.90
15666;DHT22;20725;51.196;3.510;2023-01-16T05:46:27;4.40;99.90
15666;DHT22;20725;51.196;3.510;2023-01-16T05:49:12;4.40;99.90
15666;DHT22;20725;51.196;3.510;2023-01-16T05:51:41;4.40;99.90
15666;DHT22;20725;51.196;3.510;2023-01-16T05:54:11;4.30;99.90
15666;DHT22;20725;51.196;3.510;2023-01-16T05:56:39;4.30;99.90
15666;DHT22;20725;51.196;3.510;2023-01-16T05:59:08;4.50;99.90
15666;DHT22;20725;51.196;3.510;2023-01-16T06:01:37;4.40;99.90
15666;DHT22;20725;51.196;3.510;2023-01-16T06:04:04;4.30;99.90
15666;DHT22;20725;51.196;3.510;2023-01-16T06:06:31;4.40;99.90
15666;DHT22;20725;51.196;3.510;2023-01-16T06:09:15;4.30;99.90
15666;DHT22;20725;51.196;3.510;2023-01-16T06:11:44;4.70;99.90
15666;DHT22;20725;51.196;3.510;2023-01-16T06:14:12;4.80;99.90
15666;DHT22;20725;51.196;3.510;2023-01-16T06:16:45;4.40;99.90
15666;DHT22;20725;51.196;3.510;2023-01-16T06:19:14;4.80;99.90
15666;DHT22;20725;51.196;3.510;2023-01-16T06:21:48;4.60;99.90
15666;DHT22;20725;51.196;3.510;2023-01-16T06:24:19;4.80;99.90
15666;DHT22;20725;51.196;3.510;2023-01-16T06:26:46;4.40;99.90
15666;DHT22;20725;51.196;3.510;2023-01-16T06:29:15;5.00;99.90
15666;DHT22;20725;51.196;3.510;2023-01-16T06:31:44;4.70;99.90
15666;DHT22;20725;51.196;3.510;2023-01-16T06:34:14;4.90;99.90
15666;DHT22;20725;51.196;3.510;2023-01-16T06:36:42;4.80;99.90
15666;DHT22;20725;51.196;3.510;2023-01-16T06:39:14;4.70;99.90
15666;DHT22;20725;51.196;3.510;2023-01-16T06:41:43;4.30;99.90
15666;DHT22;20725;51.196;3.510;2023-01-16T06:44:11;4.30;99.90
15666;DHT22;20725;51.196;3.510;2023-01-16T06:46:38;4.70;99.90
15666;DHT22;20725;51.196;3.510;2023-01-16T06:49:06;4.90;99.90
15666;DHT22;20725;51.196;3.510;2023-01-16T06:51:41;4.90;99.90
15666;DHT22;20725;51.196;3.510;2023-01-16T06:54:12;4.40;99.90
15666;DHT22;20725;51.196;3.510;2023-01-16T06:56:41;4.70;99.90
15666;DHT22;20725;51.196;3.510;2023-01-16T06:59:08;4.10;99.90
15666;DHT22;20725;51.196;3.510;2023-01-16T07:01:36;4.30;99.90
15666;DHT22;20725;51.196;3.510;2023-01-16T07:04:03;4.90;99.90
15666;DHT22;20725;51.196;3.510;2023-01-16T07:06:34;4.60;99.90
15666;DHT22;20725;51.196;3.510;2023-01-16T07:09:03;4.30;99.90
15666;DHT22;20725;51.196;3.510;2023-01-16T07:11:30;4.90;99.90
15666;DHT22;20725;51.196;3.510;2023-01-16T07:14:15;4.60;99.90
15666;DHT22;20725;51.196;3.510;2023-01-16T07:17:01;4.60;99.90
15666;DHT22;20725;51.196;3.510;2023-01-16T07:19:45;4.50;99.90
15666;DHT22;20725;51.196;3.510;2023-01-16T07:22:31;4.30;99.90
15666;DHT22;20725;51.196;3.510;2023-01-16T07:25:06;4.50;99.90
15666;DHT22;20725;51.196;3.510;2023-01-16T07:27:35;4.20;99.90
15666;DHT22;20725;51.196;3.510;2023-01-16T07:30:06;4.30;99.90
15666;DHT22;20725;51.196;3.510;2023-01-16T07:32:38;4.40;99.90
15666;DHT22;20725;51.196;3.510;2023-01-16T07:35:09;4.50;99.90
15666;DHT22;20725;51.196;3.510;2023-01-16T07:37:38;4.30;99.90
15666;DHT22;20725;51.196;3.510;2023-01-16T07:42:49;4.30;99.90
15666;DHT22;20725;51.196;3.510;2023-01-16T07:45:22;4.50;99.90
15666;DHT22;20725;51.196;3.510;2023-01-16T07:47:51;4.10;99.90
15666;DHT22;20725;51.196;3.510;2023-01-16T07:50:21;4.70;99.90
15666;DHT22;20725;51.196;3.510;2023-01-16T07:52:54;4.60;99.90
15666;DHT22;20725;51.196;3.510;2023-01-16T07:55:21;4.70;99.90
15666;DHT22;20725;51.196;3.510;2023-01-16T07:57:54;5.60;99.90
15666;DHT22;20725;51.196;3.510;2023-01-16T08:00:37;5.80;99.90
15666;DHT22;20725;51.196;3.510;2023-01-16T08:03:07;4.50;99.90
15666;DHT22;20725;51.196;3.510;2023-01-16T08:05:39;4.90;99.90
15666;DHT22;20725;51.196;3.510;2023-01-16T08:08:14;3.70;99.90
15666;DHT22;20725;51.196;3.510;2023-01-16T08:10:44;5.20;99.90
15666;DHT22;20725;51.196;3.510;2023-01-16T08:13:12;3.80;99.90
15666;DHT22;20725;51.196;3.510;2023-01-16T08:15:39;4.80;99.90
15666;DHT22;20725;51.196;3.510;2023-01-16T08:18:07;5.00;99.90
15666;DHT22;20725;51.196;3.510;2023-01-16T08:20:41;4.30;99.90
15666;DHT22;20725;51.196;3.510;2023-01-16T08:23:13;4.90;99.90
15666;DHT22;20725;51.196;3.510;2023-01-16T08:25:43;4.50;99.90
15666;DHT22;20725;51.196;3.510;2023-01-16T08:28:10;5.60;99.90
15666;DHT22;20725;51.196;3.510;2023-01-16T08:30:37;5.00;99.90
15666;DHT22;20725;51.196;3.510;2023-01-16T08:33:04;5.60;99.90
15666;DHT22;20725;51.196;3.510;2023-01-16T08:35:45;5.20;99.90
15666;DHT22;20725;51.196;3.510;2023-01-16T08:38:21;5.60;99.90
15666;DHT22;20725;51.196;3.510;2023-01-16T08:40:58;5.90;99.90
15666;DHT22;20725;51.196;3.510;2023-01-16T08:43:34;6.50;99.90
15666;DHT22;20725;51.196;3.510;2023-01-16T08:46:21;6.30;99.90
15666;DHT22;20725;51.196;3.510;2023-01-16T08:49:13;6.50;99.90
15666;DHT22;20725;51.196;3.510;2023-01-16T08:52:10;6.60;99.90
15666;DHT22;20725;51.196;3.510;2023-01-16T08:54:44;6.10;99.90
15666;DHT22;20725;51.196;3.510;2023-01-16T08:57:23;6.50;99.90
15666;DHT22;20725;51.196;3.510;2023-01-16T08:59:53;6.70;99.90
15666;DHT22;20725;51.196;3.510;2023-01-16T09:02:35;6.50;99.90
15666;DHT22;20725;51.196;3.510;2023-01-16T09:05:08;6.40;99.90
15666;DHT22;20725;51.196;3.510;2023-01-16T09:07:57;6.40;99.90
15666;DHT22;20725;51.196;3.510;2023-01-16T09:10:30;6.00;99.90
15666;DHT22;20725;51.196;3.510;2023-01-16T09:13:00;6.20;99.90
15666;DHT22;20725;51.196;3.510;2023-01-16T09:15:50;6.50;99.90
15666;DHT22;20725;51.196;3.510;2023-01-16T09:18:36;6.20;99.90
15666;DHT22;20725;51.196;3.510;2023-01-16T09:21:09;5.80;99.90
15666;DHT22;20725;51.196;3.510;2023-01-16T09:23:59;5.90;99.90
15666;DHT22;20725;51.196;3.510;2023-01-16T09:26:38;6.00;99.90
15666;DHT22;20725;51.196;3.510;2023-01-16T09:29:30;5.80;99.90
15666;DHT22;20725;51.196;3.510;2023-01-16T09:31:59;6.00;99.90
15666;DHT22;20725;51.196;3.510;2023-01-16T09:34:39;6.20;99.90
15666;DHT22;20725;51.196;3.510;2023-01-16T09:37:11;6.00;99.90
15666;DHT22;20725;51.196;3.510;2023-01-16T09:39:55;6.10;99.90
15666;DHT22;20725;51.196;3.510;2023-01-16T09:42:51;6.30;99.90
15666;DHT22;20725;51.196;3.510;2023-01-16T09:45:45;6.30;99.90
15666;DHT22;20725;51.196;3.510;2023-01-16T09:48:52;6.00;99.90
15666;DHT22;20725;51.196;3.510;2023-01-16T09:51:45;6.00;99.90
15666;DHT22;20725;51.196;3.510;2023-01-16T09:54:54;5.90;99.90
15666;DHT22;20725;51.196;3.510;2023-01-16T10:00:58;5.80;99.90
15666;DHT22;20725;51.196;3.510;2023-01-16T10:03:39;5.90;99.90
15666;DHT22;20725;51.196;3.510;2023-01-16T10:06:23;6.20;99.90
15666;DHT22;20725;51.196;3.510;2023-01-16T10:09:05;6.30;99.90
15666;DHT22;20725;51.196;3.510;2023-01-16T10:11:43;6.20;99.90
15666;DHT22;20725;51.196;3.510;2023-01-16T10:14:40;6.20;99.90
15666;DHT22;20725;51.196;3.510;2023-01-16T10:17:20;6.10;99.90
15666;DHT22;20725;51.196;3.510;2023-01-16T10:20:15;6.00;99.90
15666;DHT22;20725;51.196;3.510;2023-01-16T10:22:53;6.10;99.90
15666;DHT22;20725;51.196;3.510;2023-01-16T10:25:29;6.20;99.90
15666;DHT22;20725;51.196;3.510;2023-01-16T10:28:06;6.30;99.90
15666;DHT22;20725;51.196;3.510;2023-01-16T10:30:42;6.40;99.90
15666;DHT22;20725;51.196;3.510;2023-01-16T10:33:16;6.60;99.90
15666;DHT22;20725;51.196;3.510;2023-01-16T10:35:47;6.90;99.90
15666;DHT22;20725;51.196;3.510;2023-01-16T10:38:24;7.00;99.90
15666;DHT22;20725;51.196;3.510;2023-01-16T10:40:59;6.80;99.90
15666;DHT22;20725;51.196;3.510;2023-01-16T10:43:47;6.90;99.90
15666;DHT22;20725;51.196;3.510;2023-01-16T10:46:33;7.20;99.90
15666;DHT22;20725;51.196;3.510;2023-01-16T10:49:18;8.00;99.90
15666;DHT22;20725;51.196;3.510;2023-01-16T10:51:59;8.70;99.90
15666;DHT22;20725;51.196;3.510;2023-01-16T10:54:28;8.50;99.90
15666;DHT22;20725;51.196;3.510;2023-01-16T10:56:56;8.00;99.90
15666;DHT22;20725;51.196;3.510;2023-01-16T10:59:30;7.50;99.90
15666;DHT22;20725;51.196;3.510;2023-01-16T11:02:08;7.20;99.90
15666;DHT22;20725;51.196;3.510;2023-01-16T11:04:41;7.30;99.90
15666;DHT22;20725;51.196;3.510;2023-01-16T11:07:14;7.10;99.90
15666;DHT22;20725;51.196;3.510;2023-01-16T11:09:43;6.80;99.90
15666;DHT22;20725;51.196;3.510;2023-01-16T11:12:15;6.60;99.90
15666;DHT22;20725;51.196;3.510;2023-01-16T11:15:00;6.80;99.90
15666;DHT22;20725;51.196;3.510;2023-01-16T11:17:52;6.60;99.90
15666;DHT22;20725;51.196;3.510;2023-01-16T11:20:37;6.70;99.90
15666;DHT22;20725;51.196;3.510;2023-01-16T11:23:16;6.80;99.90
15666;DHT22;20725;51.196;3.510;2023-01-16T11:25:46;6.60;99.90
15666;DHT22;20725;51.196;3.510;2023-01-16T11:28:18;6.60;99.90
15666;DHT22;20725;51.196;3.510;2023-01-16T11:30:47;6.50;99.90
15666;DHT22;20725;51.196;3.510;2023-01-16T11:33:18;6.50;99.90
15666;DHT22;20725;51.196;3.510;2023-01-16T11:35:51;6.60;99.90
15666;DHT22;20725;51.196;3.510;2023-01-16T11:38:21;6.60;99.90
15666;DHT22;20725;51.196;3.510;2023-01-16T11:40:50;6.50;99.90
15666;DHT22;20725;51.196;3.510;2023-01-16T11:43:24;6.50;99.90
15666;DHT22;20725;51.196;3.510;2023-01-16T11:46:30;6.60;99.90
15666;DHT22;20725;51.196;3.510;2023-01-16T11:49:01;6.40;99.90
15666;DHT22;20725;51.196;3.510;2023-01-16T11:51:30;6.40;99.90
15666;DHT22;20725;51.196;3.510;2023-01-16T11:53:58;6.50;99.90
15666;DHT22;20725;51.196;3.510;2023-01-16T11:56:42;6.40;99.90
15666;DHT22;20725;51.196;3.510;2023-01-16T11:59:33;6.30;99.90
15666;DHT22;20725;51.196;3.510;2023-01-16T12:02:22;6.30;99.90
15666;DHT22;20725;51.196;3.510;2023-01-16T12:04:59;6.30;99.90
15666;DHT22;20725;51.196;3.510;2023-01-16T12:07:59;6.30;99.90
15666;DHT22;20725;51.196;3.510;2023-01-16T12:10:35;6.10;99.90
15666;DHT22;20725;51.196;3.510;2023-01-16T12:13:06;6.00;99.90
15666;DHT22;20725;51.196;3.510;2023-01-16T12:16:04;5.90;99.90
15666;DHT22;20725;51.196;3.510;2023-01-16T12:18:41;5.80;99.90
15666;DHT22;20725;51.196;3.510;2023-01-16T12:21:24;5.70;99.90
15666;DHT22;20725;51.196;3.510;2023-01-16T12:26:55;5.40;99.90
15666;DHT22;20725;51.196;3.510;2023-01-16T12:29:36;5.40;99.90
15666;DHT22;20725;51.196;3.510;2023-01-16T12:32:21;5.40;99.90
15666;DHT22;20725;51.196;3.510;2023-01-16T12:35:02;5.40;99.90
15666;DHT22;20725;51.196;3.510;2023-01-16T12:37:42;5.40;99.90
15666;DHT22;20725;51.196;3.510;2023-01-16T12:40:23;5.40;99.90
15666;DHT22;20725;51.196;3.510;2023-01-16T12:42:59;5.40;99.90
15666;DHT22;20725;51.196;3.510;2023-01-16T12:45:49;5.30;99.90
15666;DHT22;20725;51.196;3.510;2023-01-16T12:48:41;5.30;99.90
15666;DHT22;20725;51.196;3.510;2023-01-16T12:51:31;5.20;99.90
15666;DHT22;20725;51.196;3.510;2023-01-16T12:54:20;5.30;99.90
15666;DHT22;20725;51.196;3.510;2023-01-16T12:57:07;5.40;99.90
15666;DHT22;20725;51.196;3.510;2023-01-16T12:59:41;5.30;99.90
15666;DHT22;20725;51.196;3.510;2023-01-16T13:02:19;5.50;99.90
15666;DHT22;20725;51.196;3.510;2023-01-16T13:04:51;5.50;99.90
15666;DHT22;20725;51.196;3.510;2023-01-16T13:07:22;5.60;99.90
15666;DHT22;20725;51.196;3.510;2023-01-16T13:09:59;5.70;99.90
15666;DHT22;20725;51.196;3.510;2023-01-16T13:12:43;5.70;99.90
15666;DHT22;20725;51.196;3.510;2023-01-16T13:15:32;5.70;99.90
15666;DHT22;20725;51.196;3.510;2023-01-16T13:18:03;5.50;99.90
15666;DHT22;20725;51.196;3.510;2023-01-16T13:20:32;5.50;99.90
15666;DHT22;20725;51.196;3.510;2023-01-16T13:23:02;5.60;99.90
15666;DHT22;20725;51.196;3.510;2023-01-16T13:25:35;5.70;99.90
15666;DHT22;20725;51.196;3.510;2023-01-16T13:28:06;5.90;99.90
15666;DHT22;20725;51.196;3.510;2023-01-16T13:30:34;5.90;99.90
15666;DHT22;20725;51.196;3.510;2023-01-16T13:33:04;5.90;99.90
15666;DHT22;20725;51.196;3.510;2023-01-16T13:35:39;6.00;99.90
15666;DHT22;20725;51.196;3.510;2023-01-16T13:41:21;6.00;99.90
15666;DHT22;20725;51.196;3.510;2023-01-16T13:43:55;5.80;99.90
15666;DHT22;20725;51.196;3.510;2023-01-16T13:46:40;5.50;99.90
15666;DHT22;20725;51.196;3.510;2023-01-16T13:49:16;5.90;99.90
15666;DHT22;20725;51.196;3.510;2023-01-16T13:51:47;5.90;99.90
15666;DHT22;20725;51.196;3.510;2023-01-16T13:54:18;6.00;99.90
15666;DHT22;20725;51.196;3.510;2023-01-16T13:56:57;5.80;99.90
15666;DHT22;20725;51.196;3.510;2023-01-16T13:59:38;5.90;99.90
15666;DHT22;20725;51.196;3.510;2023-01-16T14:02:23;5.60;99.90
15666;DHT22;20725;51.196;3.510;2023-01-16T14:05:20;5.40;99.90
15666;DHT22;20725;51.196;3.510;2023-01-16T14:08:04;5.40;99.90
15666;DHT22;20725;51.196;3.510;2023-01-16T14:11:12;5.10;99.90
15666;DHT22;20725;51.196;3.510;2023-01-16T14:13:44;5.20;99.90
15666;DHT22;20725;51.196;3.510;2023-01-16T14:16:30;5.10;99.90
15666;DHT22;20725;51.196;3.510;2023-01-16T14:19:01;5.10;99.90
15666;DHT22;20725;51.196;3.510;2023-01-16T14:21:42;4.90;99.90
15666;DHT22;20725;51.196;3.510;2023-01-16T14:24:25;5.00;99.90
15666;DHT22;20725;51.196;3.510;2023-01-16T14:26:57;4.90;99.90
15666;DHT22;20725;51.196;3.510;2023-01-16T14:29:34;5.10;99.90
15666;DHT22;20725;51.196;3.510;2023-01-16T14:32:14;5.20;99.90
15666;DHT22;20725;51.196;3.510;2023-01-16T14:34:48;5.00;99.90
15666;DHT22;20725;51.196;3.510;2023-01-16T14:37:22;5.20;99.90
15666;DHT22;20725;51.196;3.510;2023-01-16T14:39:55;5.00;99.90
15666;DHT22;20725;51.196;3.510;2023-01-16T14:42:30;5.00;99.90
15666;DHT22;20725;51.196;3.510;2023-01-16T14:45:25;5.20;99.90
15666;DHT22;20725;51.196;3.510;2023-01-16T14:48:28;5.30;99.90
15666;DHT22;20725;51.196;3.510;2023-01-16T14:51:17;5.30;99.90
15666;DHT22;20725;51.196;3.510;2023-01-16T14:54:06;5.10;99.90
15666;DHT22;20725;51.196;3.510;2023-01-16T14:56:53;5.00;99.90
15666;DHT22;20725;51.196;3.510;2023-01-16T14:59:29;5.20;99.90
15666;DHT22;20725;51.196;3.510;2023-01-16T15:02:01;5.10;99.90
15666;DHT22;20725;51.196;3.510;2023-01-16T15:04:52;4.90;99.90
15666;DHT22;20725;51.196;3.510;2023-01-16T15:07:28;5.20;99.90
15666;DHT22;20725;51.196;3.510;2023-01-16T15:10:00;5.10;99.90
15666;DHT22;20725;51.196;3.510;2023-01-16T15:12:36;4.90;99.90
15666;DHT22;20725;51.196;3.510;2023-01-16T15:15:05;5.00;99.90
15666;DHT22;20725;51.196;3.510;2023-01-16T15:17:35;4.80;99.90
15666;DHT22;20725;51.196;3.510;2023-01-16T15:20:24;5.10;99.90
15666;DHT22;20725;51.196;3.510;2023-01-16T15:23:26;5.00;99.90
15666;DHT22;20725;51.196;3.510;2023-01-16T15:26:20;5.10;99.90
15666;DHT22;20725;51.196;3.510;2023-01-16T15:31:41;5.50;99.90
15666;DHT22;20725;51.196;3.510;2023-01-16T15:34:19;4.60;99.90
15666;DHT22;20725;51.196;3.510;2023-01-16T15:36:48;5.10;99.90
15666;DHT22;20725;51.196;3.510;2023-01-16T15:39:20;4.90;99.90
15666;DHT22;20725;51.196;3.510;2023-01-16T15:41:52;4.70;99.90
15666;DHT22;20725;51.196;3.510;2023-01-16T15:44:39;4.60;99.90
15666;DHT22;20725;51.196;3.510;2023-01-16T15:50:32;4.70;99.90
15666;DHT22;20725;51.196;3.510;2023-01-16T15:53:03;5.20;99.90
15666;DHT22;20725;51.196;3.510;2023-01-16T15:55:36;4.90;99.90
15666;DHT22;20725;51.196;3.510;2023-01-16T15:58:04;4.70;99.90
15666;DHT22;20725;51.196;3.510;2023-01-16T16:00:35;4.90;99.90
15666;DHT22;20725;51.196;3.510;2023-01-16T16:03:10;5.20;99.90
15666;DHT22;20725;51.196;3.510;2023-01-16T16:05:43;4.80;99.90
15666;DHT22;20725;51.196;3.510;2023-01-16T16:08:15;4.80;99.90
15666;DHT22;20725;51.196;3.510;2023-01-16T16:10:43;4.60;99.90
15666;DHT22;20725;51.196;3.510;2023-01-16T16:13:28;4.80;99.90
15666;DHT22;20725;51.196;3.510;2023-01-16T16:15:58;4.50;99.90
15666;DHT22;20725;51.196;3.510;2023-01-16T16:18:57;4.50;99.90
15666;DHT22;20725;51.196;3.510;2023-01-16T16:21:28;5.00;99.90
15666;DHT22;20725;51.196;3.510;2023-01-16T16:24:02;5.00;99.90
15666;DHT22;20725;51.196;3.510;2023-01-16T16:26:31;4.70;99.90
15666;DHT22;20725;51.196;3.510;2023-01-16T16:29:02;4.80;99.90
15666;DHT22;20725;51.196;3.510;2023-01-16T16:31:32;4.30;99.90
15666;DHT22;20725;51.196;3.510;2023-01-16T16:34:05;4.80;99.90
15666;DHT22;20725;51.196;3.510;2023-01-16T16:36:44;4.20;99.90
15666;DHT22;20725;51.196;3.510;2023-01-16T16:39:29;4.10;99.90
15666;DHT22;20725;51.196;3.510;2023-01-16T16:41:57;4.00;99.90
15666;DHT22;20725;51.196;3.510;2023-01-16T16:44:44;5.00;99.90
15666;DHT22;20725;51.196;3.510;2023-01-16T16:47:22;3.60;99.90
15666;DHT22;20725;51.196;3.510;2023-01-16T16:49:49;4.50;99.90
15666;DHT22;20725;51.196;3.510;2023-01-16T16:52:27;5.20;99.90
15666;DHT22;20725;51.196;3.510;2023-01-16T16:54:55;5.00;99.90
15666;DHT22;20725;51.196;3.510;2023-01-16T16:57:26;3.60;99.90
15666;DHT22;20725;51.196;3.510;2023-01-16T16:59:54;4.60;99.90
15666;DHT22;20725;51.196;3.510;2023-01-16T17:02:22;5.40;99.90
15666;DHT22;20725;51.196;3.510;2023-01-16T17:04:51;4.80;99.90